sensor_id;sensor_type;location;lat;lon;timestamp;temperature;humidity
61841;DHT22;47773;53.174;6.614;2023-02-28T00:00:24;5.30;99.90
61841;DHT22;47773;53.174;6.614;2023-02-28T00:02:50;5.20;99.90
61841;DHT22;47773;53.174;6.614;2023-02-28T00:05:19;5.30;99.90
61841;DHT22;47773;53.174;6.614;2023-02-28T00:07:45;5.30;99.90
61841;DHT22;47773;53.174;6.614;2023-02-28T00:10:13;5.30;99.90
61841;DHT22;47773;53.174;6.614;2023-02-28T00:12:40;5.30;99.90
61841;DHT22;47773;53.174;6.614;2023-02-28T00:15:09;5.30;99.90
61841;DHT22;47773;53.174;6.614;2023-02-28T00:17:35;5.30;99.90
61841;DHT22;47773;53.174;6.614;2023-02-28T00:20:02;5.30;99.90
61841;DHT22;47773;53.174;6.614;2023-02-28T00:22:42;5.30;99.90
61841;DHT22;47773;53.174;6.614;2023-02-28T00:25:09;5.30;99.90
61841;DHT22;47773;53.174;6.614;2023-02-28T00:27:36;5.30;99.90
61841;DHT22;47773;53.174;6.614;2023-02-28T00:30:02;5.20;99.90
61841;DHT22;47773;53.174;6.614;2023-02-28T00:32:29;5.30;99.90
61841;DHT22;47773;53.174;6.614;2023-02-28T00:34:55;5.20;99.90
61841;DHT22;47773;53.174;6.614;2023-02-28T00:37:21;5.30;99.90
61841;DHT22;47773;53.174;6.614;2023-02-28T00:39:47;5.20;99.90
61841;DHT22;47773;53.174;6.614;2023-02-28T00:42:12;5.20;99.90
61841;DHT22;47773;53.174;6.614;2023-02-28T00:44:38;5.30;99.90
61841;DHT22;47773;53.174;6.614;2023-02-28T00:47:04;5.20;99.90
61841;DHT22;47773;53.174;6.614;2023-02-28T00:49:29;5.20;99.90
61841;DHT22;47773;53.174;6.614;2023-02-28T00:51:56;5.20;99.90
61841;DHT22;47773;53.174;6.614;2023-02-28T00:54:22;5.20;99.90
61841;DHT22;47773;53.174;6.614;2023-02-28T00:56:49;5.20;99.90
61841;DHT22;47773;53.174;6.614;2023-02-28T00:59:16;5.20;99.90
61841;DHT22;47773;53.174;6.614;2023-02-28T01:01:44;5.20;99.90
61841;DHT22;47773;53.174;6.614;2023-02-28T01:04:10;5.30;99.90
61841;DHT22;47773;53.174;6.614;2023-02-28T01:06:36;5.20;99.90
61841;DHT22;47773;53.174;6.614;2023-02-28T01:09:03;5.20;99.90
61841;DHT22;47773;53.174;6.614;2023-02-28T01:11:29;5.20;99.90
61841;DHT22;47773;53.174;6.614;2023-02-28T01:13:54;5.30;99.90
61841;DHT22;47773;53.174;6.614;2023-02-28T01:16:20;5.20;99.90
61841;DHT22;47773;53.174;6.614;2023-02-28T01:18:46;5.30;99.90
61841;DHT22;47773;53.174;6.614;2023-02-28T01:21:15;5.20;99.90
61841;DHT22;47773;53.174;6.614;2023-02-28T01:23:42;5.30;99.90
61841;DHT22;47773;53.174;6.614;2023-02-28T01:26:10;5.30;99.90
61841;DHT22;47773;53.174;6.614;2023-02-28T01:28:37;5.30;99.90
61841;DHT22;47773;53.174;6.614;2023-02-28T01:31:05;5.30;99.90
61841;DHT22;47773;53.174;6.614;2023-02-28T01:33:31;5.30;99.90
61841;DHT22;47773;53.174;6.614;2023-02-28T01:36:01;5.30;99.90
61841;DHT22;47773;53.174;6.614;2023-02-28T01:38:27;5.30;99.90
61841;DHT22;47773;53.174;6.614;2023-02-28T01:40:53;5.30;99.90
61841;DHT22;47773;53.174;6.614;2023-02-28T01:43:31;5.40;99.90
61841;DHT22;47773;53.174;6.614;2023-02-28T01:45:58;5.30;99.90
61841;DHT22;47773;53.174;6.614;2023-02-28T01:48:40;5.40;99.90
61841;DHT22;47773;53.174;6.614;2023-02-28T01:51:21;5.40;99.90
61841;DHT22;47773;53.174;6.614;2023-02-28T01:53:53;5.40;99.90
61841;DHT22;47773;53.174;6.614;2023-02-28T01:56:25;5.40;99.90
61841;DHT22;47773;53.174;6.614;2023-02-28T01:58:53;5.40;99.90
61841;DHT22;47773;53.174;6.614;2023-02-28T02:01:21;5.40;99.90
61841;DHT22;47773;53.174;6.614;2023-02-28T02:03:54;5.40;99.90
61841;DHT22;47773;53.174;6.614;2023-02-28T02:06:27;5.40;99.90
61841;DHT22;47773;53.174;6.614;2023-02-28T02:08:54;5.40;99.90
61841;DHT22;47773;53.174;6.614;2023-02-28T02:11:22;5.40;99.90
61841;DHT22;47773;53.174;6.614;2023-02-28T02:33:26;5.40;99.90
61841;DHT22;47773;53.174;6.614;2023-02-28T02:38:49;5.30;99.90
61841;DHT22;47773;53.174;6.614;2023-02-28T02:41:34;5.40;99.90
61841;DHT22;47773;53.174;6.614;2023-02-28T02:44:11;5.30;99.90
61841;DHT22;47773;53.174;6.614;2023-02-28T02:46:42;5.30;99.90
61841;DHT22;47773;53.174;6.614;2023-02-28T02:49:15;5.20;99.90
61841;DHT22;47773;53.174;6.614;2023-02-28T02:51:42;5.30;99.90
61841;DHT22;47773;53.174;6.614;2023-02-28T02:54:13;5.30;99.90
61841;DHT22;47773;53.174;6.614;2023-02-28T02:56:43;5.20;99.90
61841;DHT22;47773;53.174;6.614;2023-02-28T02:59:13;5.20;99.90
61841;DHT22;47773;53.174;6.614;2023-02-28T03:01:42;5.20;99.90
61841;DHT22;47773;53.174;6.614;2023-02-28T03:04:16;5.20;99.90
61841;DHT22;47773;53.174;6.614;2023-02-28T03:06:43;5.20;99.90
61841;DHT22;47773;53.174;6.614;2023-02-28T03:09:09;5.10;99.90
61841;DHT22;47773;53.174;6.614;2023-02-28T03:11:37;5.10;99.90
61841;DHT22;47773;53.174;6.614;2023-02-28T03:14:22;5.10;99.90
61841;DHT22;47773;53.174;6.614;2023-02-28T03:19:55;5.00;99.90
61841;DHT22;47773;53.174;6.614;2023-02-28T03:22:48;5.00;99.90
61841;DHT22;47773;53.174;6.614;2023-02-28T03:25:43;5.00;99.90
61841;DHT22;47773;53.174;6.614;2023-02-28T03:33:35;4.90;99.90
61841;DHT22;47773;53.174;6.614;2023-02-28T03:36:13;4.80;99.90
61841;DHT22;47773;53.174;6.614;2023-02-28T03:39:03;4.90;99.90
61841;DHT22;47773;53.174;6.614;2023-02-28T03:41:52;4.80;99.90
61841;DHT22;47773;53.174;6.614;2023-02-28T03:44:29;4.80;99.90
61841;DHT22;47773;53.174;6.614;2023-02-28T03:47:02;4.80;99.90
61841;DHT22;47773;53.174;6.614;2023-02-28T03:49:34;4.80;99.90
61841;DHT22;47773;53.174;6.614;2023-02-28T03:52:02;4.80;99.90
61841;DHT22;47773;53.174;6.614;2023-02-28T03:54:32;4.80;99.90
61841;DHT22;47773;53.174;6.614;2023-02-28T03:57:00;4.80;99.90
61841;DHT22;47773;53.174;6.614;2023-02-28T03:59:37;4.70;99.90
61841;DHT22;47773;53.174;6.614;2023-02-28T04:02:05;4.80;99.90
61841;DHT22;47773;53.174;6.614;2023-02-28T04:04:31;4.70;99.90
61841;DHT22;47773;53.174;6.614;2023-02-28T04:07:06;4.70;99.90
61841;DHT22;47773;53.174;6.614;2023-02-28T04:09:32;4.70;99.90
61841;DHT22;47773;53.174;6.614;2023-02-28T04:11:58;4.60;99.90
61841;DHT22;47773;53.174;6.614;2023-02-28T04:14:24;4.60;99.90
61841;DHT22;47773;53.174;6.614;2023-02-28T04:16:50;4.60;99.90
61841;DHT22;47773;53.174;6.614;2023-02-28T04:19:16;4.50;99.90
61841;DHT22;47773;53.174;6.614;2023-02-28T04:21:51;4.50;99.90
61841;DHT22;47773;53.174;6.614;2023-02-28T04:24:22;4.50;99.90
61841;DHT22;47773;53.174;6.614;2023-02-28T04:26:50;4.50;99.90
61841;DHT22;47773;53.174;6.614;2023-02-28T04:29:23;4.50;99.90
61841;DHT22;47773;53.174;6.614;2023-02-28T04:31:49;4.50;99.90
61841;DHT22;47773;53.174;6.614;2023-02-28T04:34:16;4.40;99.90
61841;DHT22;47773;53.174;6.614;2023-02-28T04:36:41;4.40;99.90
61841;DHT22;47773;53.174;6.614;2023-02-28T04:39:08;4.50;99.90
61841;DHT22;47773;53.174;6.614;2023-02-28T04:41:35;4.40;99.90
61841;DHT22;47773;53.174;6.614;2023-02-28T04:44:00;4.40;99.90
61841;DHT22;47773;53.174;6.614;2023-02-28T04:46:26;4.40;99.90
61841;DHT22;47773;53.174;6.614;2023-02-28T04:48:52;4.40;99.90
61841;DHT22;47773;53.174;6.614;2023-02-28T04:51:19;4.40;99.90
61841;DHT22;47773;53.174;6.614;2023-02-28T04:53:45;4.30;99.90
61841;DHT22;47773;53.174;6.614;2023-02-28T04:56:13;4.30;99.90
61841;DHT22;47773;53.174;6.614;2023-02-28T04:58:39;4.30;99.90
61841;DHT22;47773;53.174;6.614;2023-02-28T05:01:14;4.20;99.90
61841;DHT22;47773;53.174;6.614;2023-02-28T05:03:44;4.20;99.90
61841;DHT22;47773;53.174;6.614;2023-02-28T05:06:11;4.20;99.90
61841;DHT22;47773;53.174;6.614;2023-02-28T05:08:37;4.20;99.90
61841;DHT22;47773;53.174;6.614;2023-02-28T05:11:05;4.20;99.90
61841;DHT22;47773;53.174;6.614;2023-02-28T05:13:31;4.20;99.90
61841;DHT22;47773;53.174;6.614;2023-02-28T05:15:57;4.20;99.90
61841;DHT22;47773;53.174;6.614;2023-02-28T05:18:22;4.20;99.90
61841;DHT22;47773;53.174;6.614;2023-02-28T05:20:48;4.10;99.90
61841;DHT22;47773;53.174;6.614;2023-02-28T05:23:14;4.10;99.90
61841;DHT22;47773;53.174;6.614;2023-02-28T05:25:41;4.10;99.90
61841;DHT22;47773;53.174;6.614;2023-02-28T05:28:07;4.10;99.90
61841;DHT22;47773;53.174;6.614;2023-02-28T05:30:33;4.00;99.90
61841;DHT22;47773;53.174;6.614;2023-02-28T05:32:59;4.00;99.90
61841;DHT22;47773;53.174;6.614;2023-02-28T05:35:25;4.00;99.90
61841;DHT22;47773;53.174;6.614;2023-02-28T05:37:51;4.10;99.90
61841;DHT22;47773;53.174;6.614;2023-02-28T05:40:17;4.00;99.90
61841;DHT22;47773;53.174;6.614;2023-02-28T05:42:44;4.00;99.90
61841;DHT22;47773;53.174;6.614;2023-02-28T05:45:10;4.00;99.90
61841;DHT22;47773;53.174;6.614;2023-02-28T05:47:36;4.00;99.90
61841;DHT22;47773;53.174;6.614;2023-02-28T05:50:03;4.00;99.90
61841;DHT22;47773;53.174;6.614;2023-02-28T05:52:28;4.10;99.90
61841;DHT22;47773;53.174;6.614;2023-02-28T05:54:55;4.00;99.90
61841;DHT22;47773;53.174;6.614;2023-02-28T05:57:21;4.00;99.90
61841;DHT22;47773;53.174;6.614;2023-02-28T05:59:47;4.00;99.90
61841;DHT22;47773;53.174;6.614;2023-02-28T06:02:15;4.00;99.90
61841;DHT22;47773;53.174;6.614;2023-02-28T06:04:42;3.90;99.90
61841;DHT22;47773;53.174;6.614;2023-02-28T06:07:08;3.90;99.90
61841;DHT22;47773;53.174;6.614;2023-02-28T06:09:34;4.00;99.90
61841;DHT22;47773;53.174;6.614;2023-02-28T06:12:01;4.00;99.90
61841;DHT22;47773;53.174;6.614;2023-02-28T06:14:29;3.90;99.90
61841;DHT22;47773;53.174;6.614;2023-02-28T06:16:56;3.90;99.90
61841;DHT22;47773;53.174;6.614;2023-02-28T06:19:22;3.90;99.90
61841;DHT22;47773;53.174;6.614;2023-02-28T06:21:51;3.80;99.90
61841;DHT22;47773;53.174;6.614;2023-02-28T06:24:19;3.90;99.90
61841;DHT22;47773;53.174;6.614;2023-02-28T06:26:45;3.90;99.90
61841;DHT22;47773;53.174;6.614;2023-02-28T06:29:11;3.90;99.90
61841;DHT22;47773;53.174;6.614;2023-02-28T06:31:37;3.90;99.90
61841;DHT22;47773;53.174;6.614;2023-02-28T06:34:04;3.80;99.90
61841;DHT22;47773;53.174;6.614;2023-02-28T06:36:30;3.80;99.90
61841;DHT22;47773;53.174;6.614;2023-02-28T06:38:56;3.80;99.90
61841;DHT22;47773;53.174;6.614;2023-02-28T06:41:23;3.70;99.90
61841;DHT22;47773;53.174;6.614;2023-02-28T06:43:49;3.70;99.90
61841;DHT22;47773;53.174;6.614;2023-02-28T06:46:15;3.70;99.90
61841;DHT22;47773;53.174;6.614;2023-02-28T06:48:42;3.70;99.90
61841;DHT22;47773;53.174;6.614;2023-02-28T06:51:11;3.80;99.90
61841;DHT22;47773;53.174;6.614;2023-02-28T06:53:37;3.80;99.90
61841;DHT22;47773;53.174;6.614;2023-02-28T06:56:08;3.80;99.90
61841;DHT22;47773;53.174;6.614;2023-02-28T06:58:34;3.80;99.90
61841;DHT22;47773;53.174;6.614;2023-02-28T07:01:00;3.80;99.90
61841;DHT22;47773;53.174;6.614;2023-02-28T07:03:26;3.70;99.90
61841;DHT22;47773;53.174;6.614;2023-02-28T07:05:52;3.70;99.90
61841;DHT22;47773;53.174;6.614;2023-02-28T07:08:17;3.70;99.90
61841;DHT22;47773;53.174;6.614;2023-02-28T07:10:43;3.70;99.90
61841;DHT22;47773;53.174;6.614;2023-02-28T07:13:09;3.70;99.90
61841;DHT22;47773;53.174;6.614;2023-02-28T07:15:36;3.70;99.90
61841;DHT22;47773;53.174;6.614;2023-02-28T07:18:02;3.70;99.90
61841;DHT22;47773;53.174;6.614;2023-02-28T07:20:29;3.70;99.90
61841;DHT22;47773;53.174;6.614;2023-02-28T07:22:55;3.70;99.90
61841;DHT22;47773;53.174;6.614;2023-02-28T07:25:28;3.70;99.90
61841;DHT22;47773;53.174;6.614;2023-02-28T07:27:55;3.70;99.90
61841;DHT22;47773;53.174;6.614;2023-02-28T07:30:21;3.60;99.90
61841;DHT22;47773;53.174;6.614;2023-02-28T07:32:47;3.70;99.90
61841;DHT22;47773;53.174;6.614;2023-02-28T07:35:13;3.70;99.90
61841;DHT22;47773;53.174;6.614;2023-02-28T07:37:41;3.70;99.90
61841;DHT22;47773;53.174;6.614;2023-02-28T07:40:09;3.80;99.90
61841;DHT22;47773;53.174;6.614;2023-02-28T07:42:35;3.80;99.90
61841;DHT22;47773;53.174;6.614;2023-02-28T07:45:02;3.80;99.90
61841;DHT22;47773;53.174;6.614;2023-02-28T07:47:29;3.80;99.90
61841;DHT22;47773;53.174;6.614;2023-02-28T07:49:56;3.90;99.90
61841;DHT22;47773;53.174;6.614;2023-02-28T07:52:22;3.90;99.90
61841;DHT22;47773;53.174;6.614;2023-02-28T07:54:49;3.90;99.90
61841;DHT22;47773;53.174;6.614;2023-02-28T07:57:15;3.90;99.90
61841;DHT22;47773;53.174;6.614;2023-02-28T07:59:41;3.90;99.90
61841;DHT22;47773;53.174;6.614;2023-02-28T08:02:09;3.90;99.90
61841;DHT22;47773;53.174;6.614;2023-02-28T08:04:36;3.90;99.90
61841;DHT22;47773;53.174;6.614;2023-02-28T08:07:02;3.90;99.90
61841;DHT22;47773;53.174;6.614;2023-02-28T08:09:27;4.00;99.90
61841;DHT22;47773;53.174;6.614;2023-02-28T08:11:55;4.00;99.90
61841;DHT22;47773;53.174;6.614;2023-02-28T08:14:20;4.00;99.90
61841;DHT22;47773;53.174;6.614;2023-02-28T08:16:46;4.10;99.90
61841;DHT22;47773;53.174;6.614;2023-02-28T08:19:12;4.10;99.90
61841;DHT22;47773;53.174;6.614;2023-02-28T08:21:37;4.10;99.90
61841;DHT22;47773;53.174;6.614;2023-02-28T08:24:03;4.20;99.90
61841;DHT22;47773;53.174;6.614;2023-02-28T08:26:29;4.30;99.90
61841;DHT22;47773;53.174;6.614;2023-02-28T08:28:55;4.20;99.90
61841;DHT22;47773;53.174;6.614;2023-02-28T08:31:20;4.30;99.90
61841;DHT22;47773;53.174;6.614;2023-02-28T08:33:46;4.30;99.90
61841;DHT22;47773;53.174;6.614;2023-02-28T08:36:15;4.30;99.90
61841;DHT22;47773;53.174;6.614;2023-02-28T08:38:40;4.30;99.90
61841;DHT22;47773;53.174;6.614;2023-02-28T08:41:09;4.40;99.90
61841;DHT22;47773;53.174;6.614;2023-02-28T08:43:35;4.50;99.90
61841;DHT22;47773;53.174;6.614;2023-02-28T08:46:02;4.50;99.90
61841;DHT22;47773;53.174;6.614;2023-02-28T08:48:30;4.50;99.90
61841;DHT22;47773;53.174;6.614;2023-02-28T08:51:10;4.50;99.90
61841;DHT22;47773;53.174;6.614;2023-02-28T08:53:37;4.60;99.90
61841;DHT22;47773;53.174;6.614;2023-02-28T08:56:15;4.60;99.90
61841;DHT22;47773;53.174;6.614;2023-02-28T08:58:43;4.60;99.90
61841;DHT22;47773;53.174;6.614;2023-02-28T09:01:21;4.60;99.90
61841;DHT22;47773;53.174;6.614;2023-02-28T09:03:48;4.60;99.90
61841;DHT22;47773;53.174;6.614;2023-02-28T09:06:16;4.70;99.90
61841;DHT22;47773;53.174;6.614;2023-02-28T09:08:42;4.70;99.90
61841;DHT22;47773;53.174;6.614;2023-02-28T09:11:09;4.90;99.90
61841;DHT22;47773;53.174;6.614;2023-02-28T09:13:35;5.10;99.90
61841;DHT22;47773;53.174;6.614;2023-02-28T09:16:02;5.20;99.90
61841;DHT22;47773;53.174;6.614;2023-02-28T09:18:29;5.30;99.90
61841;DHT22;47773;53.174;6.614;2023-02-28T09:20:55;5.40;99.90
61841;DHT22;47773;53.174;6.614;2023-02-28T09:23:21;5.70;99.90
61841;DHT22;47773;53.174;6.614;2023-02-28T09:25:54;5.90;99.90
61841;DHT22;47773;53.174;6.614;2023-02-28T09:28:21;6.00;99.90
61841;DHT22;47773;53.174;6.614;2023-02-28T09:30:52;6.00;99.90
61841;DHT22;47773;53.174;6.614;2023-02-28T09:33:18;6.00;99.90
61841;DHT22;47773;53.174;6.614;2023-02-28T09:35:47;6.10;99.90
61841;DHT22;47773;53.174;6.614;2023-02-28T09:38:12;6.20;99.90
61841;DHT22;47773;53.174;6.614;2023-02-28T09:40:50;6.20;99.90
61841;DHT22;47773;53.174;6.614;2023-02-28T09:43:19;6.20;99.90
61841;DHT22;47773;53.174;6.614;2023-02-28T09:45:52;6.30;99.90
61841;DHT22;47773;53.174;6.614;2023-02-28T09:48:27;6.30;99.90
61841;DHT22;47773;53.174;6.614;2023-02-28T09:51:00;6.40;99.90
61841;DHT22;47773;53.174;6.614;2023-02-28T09:53:33;6.50;99.90
61841;DHT22;47773;53.174;6.614;2023-02-28T09:56:09;6.60;99.90
61841;DHT22;47773;53.174;6.614;2023-02-28T09:59:04;6.70;99.90
61841;DHT22;47773;53.174;6.614;2023-02-28T10:01:57;6.90;99.90
61841;DHT22;47773;53.174;6.614;2023-02-28T10:04:36;6.90;99.90
61841;DHT22;47773;53.174;6.614;2023-02-28T10:13:05;7.30;99.90
61841;DHT22;47773;53.174;6.614;2023-02-28T10:15:33;7.40;99.90
61841;DHT22;47773;53.174;6.614;2023-02-28T10:18:04;7.50;99.90
61841;DHT22;47773;53.174;6.614;2023-02-28T10:20:33;7.70;99.90
61841;DHT22;47773;53.174;6.614;2023-02-28T10:23:17;7.80;99.90
61841;DHT22;47773;53.174;6.614;2023-02-28T10:25:51;8.00;99.90
61841;DHT22;47773;53.174;6.614;2023-02-28T10:28:18;8.10;99.90
61841;DHT22;47773;53.174;6.614;2023-02-28T10:30:47;8.20;99.90
61841;DHT22;47773;53.174;6.614;2023-02-28T10:35:52;8.40;99.90
61841;DHT22;47773;53.174;6.614;2023-02-28T10:38:21;8.50;99.90
61841;DHT22;47773;53.174;6.614;2023-02-28T10:40:47;8.60;99.90
61841;DHT22;47773;53.174;6.614;2023-02-28T10:45:40;8.70;99.90
61841;DHT22;47773;53.174;6.614;2023-02-28T11:01:17;8.90;99.90
61841;DHT22;47773;53.174;6.614;2023-02-28T11:03:43;8.80;99.90
61841;DHT22;47773;53.174;6.614;2023-02-28T11:06:24;8.90;99.90
61841;DHT22;47773;53.174;6.614;2023-02-28T11:09:05;9.00;99.90
61841;DHT22;47773;53.174;6.614;2023-02-28T11:11:46;9.10;99.90
61841;DHT22;47773;53.174;6.614;2023-02-28T11:14:25;9.00;99.90
61841;DHT22;47773;53.174;6.614;2023-02-28T11:16:52;9.00;99.90
61841;DHT22;47773;53.174;6.614;2023-02-28T11:19:28;9.00;99.90
61841;DHT22;47773;53.174;6.614;2023-02-28T11:21:59;9.10;99.90
61841;DHT22;47773;53.174;6.614;2023-02-28T11:24:31;9.00;99.90
61841;DHT22;47773;53.174;6.614;2023-02-28T11:26:59;9.00;99.90
61841;DHT22;47773;53.174;6.614;2023-02-28T11:29:33;9.10;99.90
61841;DHT22;47773;53.174;6.614;2023-02-28T11:34:45;9.10;99.90
61841;DHT22;47773;53.174;6.614;2023-02-28T11:37:20;9.20;99.90
61841;DHT22;47773;53.174;6.614;2023-02-28T11:39:46;9.20;99.90
61841;DHT22;47773;53.174;6.614;2023-02-28T11:47:48;9.00;99.90
61841;DHT22;47773;53.174;6.614;2023-02-28T11:50:23;8.80;99.90
61841;DHT22;47773;53.174;6.614;2023-02-28T11:52:53;8.80;99.90
61841;DHT22;47773;53.174;6.614;2023-02-28T11:55:27;8.60;99.90
61841;DHT22;47773;53.174;6.614;2023-02-28T11:57:59;8.60;99.90
61841;DHT22;47773;53.174;6.614;2023-02-28T12:06:13;8.40;99.90
61841;DHT22;47773;53.174;6.614;2023-02-28T12:11:51;8.20;99.90
61841;DHT22;47773;53.174;6.614;2023-02-28T12:19:57;8.00;99.90
61841;DHT22;47773;53.174;6.614;2023-02-28T12:22:53;8.10;99.90
61841;DHT22;47773;53.174;6.614;2023-02-28T12:25:54;8.20;99.90
61841;DHT22;47773;53.174;6.614;2023-02-28T12:28:31;8.20;99.90
61841;DHT22;47773;53.174;6.614;2023-02-28T12:31:14;8.30;99.90
61841;DHT22;47773;53.174;6.614;2023-02-28T12:33:43;8.30;99.90
61841;DHT22;47773;53.174;6.614;2023-02-28T12:36:12;8.40;99.90
61841;DHT22;47773;53.174;6.614;2023-02-28T12:39:04;8.40;99.90
61841;DHT22;47773;53.174;6.614;2023-02-28T12:41:45;8.40;99.90
61841;DHT22;47773;53.174;6.614;2023-02-28T12:44:19;8.40;99.90
61841;DHT22;47773;53.174;6.614;2023-02-28T12:46:49;8.40;99.90
61841;DHT22;47773;53.174;6.614;2023-02-28T12:49:24;8.40;99.90
61841;DHT22;47773;53.174;6.614;2023-02-28T12:51:51;8.30;99.90
61841;DHT22;47773;53.174;6.614;2023-02-28T12:54:24;8.30;99.90
61841;DHT22;47773;53.174;6.614;2023-02-28T12:59:56;8.40;99.90
61841;DHT22;47773;53.174;6.614;2023-02-28T13:10:49;8.70;99.90
61841;DHT22;47773;53.174;6.614;2023-02-28T13:13:25;8.80;99.90
61841;DHT22;47773;53.174;6.614;2023-02-28T13:18:37;8.80;99.90
61841;DHT22;47773;53.174;6.614;2023-02-28T13:21:08;8.80;99.90
61841;DHT22;47773;53.174;6.614;2023-02-28T13:23:58;8.70;99.90
61841;DHT22;47773;53.174;6.614;2023-02-28T13:29:27;8.50;99.90
61841;DHT22;47773;53.174;6.614;2023-02-28T13:34:35;8.30;99.90
61841;DHT22;47773;53.174;6.614;2023-02-28T13:37:41;8.30;99.90
61841;DHT22;47773;53.174;6.614;2023-02-28T13:42:46;8.30;99.90
61841;DHT22;47773;53.174;6.614;2023-02-28T13:47:48;8.20;99.90
61841;DHT22;47773;53.174;6.614;2023-02-28T14:03:45;8.40;99.90
61841;DHT22;47773;53.174;6.614;2023-02-28T14:06:31;8.30;99.90
61841;DHT22;47773;53.174;6.614;2023-02-28T14:11:43;8.10;99.90
61841;DHT22;47773;53.174;6.614;2023-02-28T14:17:21;7.90;99.90
61841;DHT22;47773;53.174;6.614;2023-02-28T14:19:47;7.80;99.90
61841;DHT22;47773;53.174;6.614;2023-02-28T14:22:52;7.70;99.90
61841;DHT22;47773;53.174;6.614;2023-02-28T14:31:13;7.40;99.90
61841;DHT22;47773;53.174;6.614;2023-02-28T14:36:33;7.40;99.90
61841;DHT22;47773;53.174;6.614;2023-02-28T14:39:01;7.40;99.90
61841;DHT22;47773;53.174;6.614;2023-02-28T14:41:35;7.50;98.10
61841;DHT22;47773;53.174;6.614;2023-02-28T14:46:40;7.60;99.90
61841;DHT22;47773;53.174;6.614;2023-02-28T14:49:34;7.60;99.90
61841;DHT22;47773;53.174;6.614;2023-02-28T14:54:36;7.70;99.90
61841;DHT22;47773;53.174;6.614;2023-02-28T14:57:02;7.80;99.90
61841;DHT22;47773;53.174;6.614;2023-02-28T14:59:33;7.70;99.90
61841;DHT22;47773;53.174;6.614;2023-02-28T15:04:44;7.60;96.90
61841;DHT22;47773;53.174;6.614;2023-02-28T15:07:17;7.50;99.90
61841;DHT22;47773;53.174;6.614;2023-02-28T15:09:42;7.40;99.90
61841;DHT22;47773;53.174;6.614;2023-02-28T15:12:13;7.40;99.90
61841;DHT22;47773;53.174;6.614;2023-02-28T15:14:42;7.30;99.90
61841;DHT22;47773;53.174;6.614;2023-02-28T15:17:19;7.20;99.90
61841;DHT22;47773;53.174;6.614;2023-02-28T15:19:50;7.10;99.90
61841;DHT22;47773;53.174;6.614;2023-02-28T15:22:21;7.10;99.90
61841;DHT22;47773;53.174;6.614;2023-02-28T15:24:51;7.20;99.90
61841;DHT22;47773;53.174;6.614;2023-02-28T15:27:25;7.20;99.90
61841;DHT22;47773;53.174;6.614;2023-02-28T15:29:56;7.20;99.90
61841;DHT22;47773;53.174;6.614;2023-02-28T15:32:47;7.30;99.90
61841;DHT22;47773;53.174;6.614;2023-02-28T15:35:28;7.30;99.90
61841;DHT22;47773;53.174;6.614;2023-02-28T15:37:58;7.30;99.90
61841;DHT22;47773;53.174;6.614;2023-02-28T15:40:46;7.30;99.70
61841;DHT22;47773;53.174;6.614;2023-02-28T15:43:32;7.30;99.90
61841;DHT22;47773;53.174;6.614;2023-02-28T15:46:03;7.30;99.90
61841;DHT22;47773;53.174;6.614;2023-02-28T15:48:31;7.30;99.90
61841;DHT22;47773;53.174;6.614;2023-02-28T15:53:54;7.20;99.90
61841;DHT22;47773;53.174;6.614;2023-02-28T15:56:30;7.20;98.50
61841;DHT22;47773;53.174;6.614;2023-02-28T15:59:05;7.10;99.90
61841;DHT22;47773;53.174;6.614;2023-02-28T16:01:37;7.10;99.90
61841;DHT22;47773;53.174;6.614;2023-02-28T16:04:14;7.00;99.90
61841;DHT22;47773;53.174;6.614;2023-02-28T16:07:11;7.00;99.90
61841;DHT22;47773;53.174;6.614;2023-02-28T16:09:37;7.00;99.90
61841;DHT22;47773;53.174;6.614;2023-02-28T16:12:03;7.00;99.90
61841;DHT22;47773;53.174;6.614;2023-02-28T16:14:31;7.00;99.90
61841;DHT22;47773;53.174;6.614;2023-02-28T16:17:03;7.00;99.90
61841;DHT22;47773;53.174;6.614;2023-02-28T16:19:29;7.00;99.90
61841;DHT22;47773;53.174;6.614;2023-02-28T16:21:56;7.00;99.90
61841;DHT22;47773;53.174;6.614;2023-02-28T16:24:22;7.00;99.90
61841;DHT22;47773;53.174;6.614;2023-02-28T16:26:50;7.00;99.90
61841;DHT22;47773;53.174;6.614;2023-02-28T16:29:32;6.90;99.90
61841;DHT22;47773;53.174;6.614;2023-02-28T16:31:58;6.90;99.90
61841;DHT22;47773;53.174;6.614;2023-02-28T16:34:24;6.90;99.90
61841;DHT22;47773;53.174;6.614;2023-02-28T16:36:51;6.80;99.90
61841;DHT22;47773;53.174;6.614;2023-02-28T16:39:16;6.80;99.90
61841;DHT22;47773;53.174;6.614;2023-02-28T16:41:44;6.80;99.90
61841;DHT22;47773;53.174;6.614;2023-02-28T16:44:34;6.80;99.90
61841;DHT22;47773;53.174;6.614;2023-02-28T16:47:01;6.80;99.90
61841;DHT22;47773;53.174;6.614;2023-02-28T16:49:27;6.70;99.90
61841;DHT22;47773;53.174;6.614;2023-02-28T16:51:53;6.70;99.90
61841;DHT22;47773;53.174;6.614;2023-02-28T16:54:19;6.60;99.90
61841;DHT22;47773;53.174;6.614;2023-02-28T16:56:46;6.60;99.90
61841;DHT22;47773;53.174;6.614;2023-02-28T16:59:13;6.60;99.90
61841;DHT22;47773;53.174;6.614;2023-02-28T17:01:39;6.60;99.90
61841;DHT22;47773;53.174;6.614;2023-02-28T17:04:05;6.50;99.90
61841;DHT22;47773;53.174;6.614;2023-02-28T17:06:31;6.50;99.90
61841;DHT22;47773;53.174;6.614;2023-02-28T17:08:57;6.50;99.90
61841;DHT22;47773;53.174;6.614;2023-02-28T17:11:24;6.40;99.90
61841;DHT22;47773;53.174;6.614;2023-02-28T17:13:50;6.40;99.90
61841;DHT22;47773;53.174;6.614;2023-02-28T17:16:34;6.30;99.90
61841;DHT22;47773;53.174;6.614;2023-02-28T17:19:05;6.30;99.90
61841;DHT22;47773;53.174;6.614;2023-02-28T17:21:31;6.20;99.90
61841;DHT22;47773;53.174;6.614;2023-02-28T17:23:58;6.20;99.90
61841;DHT22;47773;53.174;6.614;2023-02-28T17:26:24;6.10;99.90
61841;DHT22;47773;53.174;6.614;2023-02-28T17:28:52;6.00;99.90
61841;DHT22;47773;53.174;6.614;2023-02-28T17:31:18;6.00;99.90
61841;DHT22;47773;53.174;6.614;2023-02-28T17:33:44;6.00;99.90
61841;DHT22;47773;53.174;6.614;2023-02-28T17:36:14;5.90;99.90
61841;DHT22;47773;53.174;6.614;2023-02-28T17:38:40;5.80;99.90
61841;DHT22;47773;53.174;6.614;2023-02-28T17:41:07;5.80;99.90
61841;DHT22;47773;53.174;6.614;2023-02-28T17:43:34;5.80;99.90
61841;DHT22;47773;53.174;6.614;2023-02-28T17:46:00;5.70;99.90
61841;DHT22;47773;53.174;6.614;2023-02-28T17:48:26;5.60;99.90
61841;DHT22;47773;53.174;6.614;2023-02-28T17:50:51;5.60;99.90
61841;DHT22;47773;53.174;6.614;2023-02-28T17:53:17;5.50;99.90
61841;DHT22;47773;53.174;6.614;2023-02-28T17:55:43;5.50;99.90
61841;DHT22;47773;53.174;6.614;2023-02-28T17:58:10;5.40;99.90
61841;DHT22;47773;53.174;6.614;2023-02-28T18:00:38;5.30;99.90
61841;DHT22;47773;53.174;6.614;2023-02-28T18:03:03;5.30;99.90
61841;DHT22;47773;53.174;6.614;2023-02-28T18:05:29;5.20;99.90
61841;DHT22;47773;53.174;6.614;2023-02-28T18:07:56;5.20;99.90
61841;DHT22;47773;53.174;6.614;2023-02-28T18:10:21;5.10;99.90
61841;DHT22;47773;53.174;6.614;2023-02-28T18:12:49;5.10;99.90
61841;DHT22;47773;53.174;6.614;2023-02-28T18:15:16;5.10;99.90
61841;DHT22;47773;53.174;6.614;2023-02-28T18:17:42;5.00;99.90
61841;DHT22;47773;53.174;6.614;2023-02-28T18:20:12;5.00;99.90
61841;DHT22;47773;53.174;6.614;2023-02-28T18:22:38;4.90;99.90